• Bienvenue sur Pilotes Québec!
  • Bienvenue sur le site de Pilotes Québec, la nouvelle communauté des pilotes et aviateurs du Québec.
  • L'image de cette semaine nous vient de Denis Morissette!  La photo a été prise à Miguasha, en Gaspésie, lors d'un atterrissage par bon vent de travers et fort vent rabattant en finale.
  • Calendrier des activités
  • sujets récents au forum...
  • Les nouvelles en bref...

Connexion


J'ai oublié mon mot de passe
Renvoyer l'e-mail de confirmation
 

Publicité

Vous aimeriez afficher une publicité pour joindre la communauté des pilotes professionnels et privé du Québec?  Cliquez ici pour en savoir plus!

Conditions actuelles

Click for Quebec, Quebec Forecast

METAR - Québec


2015/07/02 03:00
CYQB 020300Z 21012KT 15SM SCT006 BKN015 OVC025 18/17 A2955 RMK SF3SC3SC2 SLP005 DENSITY ALT 1000FT

TAF - Québec


2015/07/01 22:09
TAF TAF
AMD CYQB 012205Z 0122/0218 07005KT P6SM -SHRA SCT010 OVC030
TEMPO 0122/0203 4SM -SHRA BR BKN008 OVC020
FM020300 20008KT P6SM FEW006 OVC025
TEMPO 0203/0208 3SM -SHRA BR BKN005 OVC015
BECMG 0206/0208 24015G25KT
FM020800 24015G25KT P6SM BKN015 OVC030
TEMPO 0208/0215 BKN025 OVC070
FM021500 25018G28KT P6SM BKN030
RMK NXT FCST BY 020000Z